Terminal Aerodrome Forecast
Issued by NWS

Home | Current Version | Previous Version | Text Only | Print | Product List | Glossary On
Versions: 1 2 3 4 5 6 7 8 9 10 11 12
000
FTUS46 KHNX 282300
TAFFAT
TAF
KFAT 282320Z 2900/2924 31008KT P6SM BKN150
     FM290900 VRB04KT P6SM BKN150
      TEMPO 2914/2917 12006KT
     FM292200 30008KT P6SM BKN200=

USA.gov is the U.S. government's official web portal to all federal, state and local government web resources and services.